Time;durP1;ratioP1;P1;durP2;ratioP2;P2;SDS_P1;SDS_P2;PMS_P1;PMS_P2;Temp;Humidity;BMP_temperature;BMP_pressure;BME280_temperature;BME280_humidity;BME280_pressure;Samples;Min_cycle;Max_cycle;Signal;HPM_P1;HPM_P2
2021/10/06 00:03:02;;;;;;;2.40;1.10;;;16.40;48.40;;;;;;10400665;28;20222;-73
2021/10/06 00:08:06;;;;;;;1.00;1.00;;;16.50;48.20;;;;;;10399298;28;20261;-73
2021/10/06 00:13:14;;;;;;;0.97;0.90;;;16.50;47.80;;;;;;10401023;28;20309;-73
2021/10/06 00:18:17;;;;;;;0.90;0.80;;;16.50;47.70;;;;;;10398020;28;20217;-73
2021/10/06 00:23:20;;;;;;;1.20;1.10;;;16.50;47.60;;;;;;10405325;28;20231;-73
2021/10/06 00:28:25;;;;;;;0.90;0.90;;;16.40;47.20;;;;;;10398022;28;20309;-74
2021/10/06 00:33:28;;;;;;;0.80;0.80;;;16.40;47.00;;;;;;10395446;28;20236;-73
2021/10/06 00:38:32;;;;;;;1.33;0.90;;;16.30;46.70;;;;;;10408700;28;20230;-73
2021/10/06 00:43:37;;;;;;;1.20;0.77;;;16.30;46.80;;;;;;10399831;28;20225;-73
2021/10/06 00:48:40;;;;;;;1.50;0.90;;;16.20;46.50;;;;;;10399057;28;20235;-73
2021/10/06 00:53:43;;;;;;;0.87;0.83;;;16.10;46.50;;;;;;10397152;28;20240;-73
2021/10/06 00:58:48;;;;;;;0.80;0.80;;;16.10;46.50;;;;;;10402041;28;20267;-73
2021/10/06 01:03:51;;;;;;;1.77;0.83;;;16.10;46.30;;;;;;10396421;28;20231;-74
2021/10/06 01:08:56;;;;;;;0.77;0.77;;;15.90;46.30;;;;;;10396996;28;20232;-74
2021/10/06 01:14:01;;;;;;;0.57;0.50;;;15.80;46.30;;;;;;10407726;28;20225;-74
2021/10/06 01:19:17;;;;;;;0.80;0.80;;;15.80;46.30;;;;;;10408009;28;20262;-73
2021/10/06 01:24:22;;;;;;;1.03;0.80;;;15.70;47.10;;;;;;10404024;28;20327;-73
2021/10/06 01:29:26;;;;;;;0.80;0.70;;;15.70;46.20;;;;;;10405955;28;20439;-73
2021/10/06 01:34:29;;;;;;;1.83;0.80;;;15.70;46.40;;;;;;10404120;28;20225;-75
2021/10/06 01:39:34;;;;;;;1.33;0.80;;;15.60;46.30;;;;;;10401136;28;20608;-74
2021/10/06 01:44:37;;;;;;;1.67;0.73;;;15.50;46.40;;;;;;10411126;28;20232;-73
2021/10/06 01:49:42;;;;;;;1.27;0.83;;;15.40;46.50;;;;;;10404306;28;20230;-74
2021/10/06 01:54:47;;;;;;;1.90;0.90;;;15.40;46.60;;;;;;10402651;28;20238;-73
2021/10/06 01:59:51;;;;;;;1.87;0.87;;;15.30;46.60;;;;;;10405949;28;20233;-73
2021/10/06 02:04:54;;;;;;;1.33;0.77;;;15.30;46.70;;;;;;10403421;28;20228;-73
2021/10/06 02:09:58;;;;;;;0.60;0.60;;;15.20;46.60;;;;;;10402417;28;20214;-73
2021/10/06 02:15:02;;;;;;;1.77;0.73;;;15.20;46.70;;;;;;10404362;28;20317;-73
2021/10/06 02:20:07;;;;;;;0.70;0.70;;;15.20;46.70;;;;;;10402980;28;20231;-73
2021/10/06 02:25:12;;;;;;;1.03;0.80;;;15.20;46.90;;;;;;10407003;28;20243;-73
2021/10/06 02:30:16;;;;;;;2.20;1.00;;;15.20;46.80;;;;;;10401902;28;20229;-73
2021/10/06 02:35:19;;;;;;;2.20;0.70;;;15.20;46.70;;;;;;10402523;28;20700;-73
2021/10/06 02:40:24;;;;;;;1.73;0.80;;;15.20;46.60;;;;;;10403028;28;20221;-73
2021/10/06 02:45:27;;;;;;;1.17;0.87;;;15.30;46.60;;;;;;10402534;28;20309;-73
2021/10/06 02:50:30;;;;;;;1.67;0.90;;;15.20;46.60;;;;;;10404356;28;20225;-73
2021/10/06 02:55:35;;;;;;;2.20;0.80;;;15.30;46.50;;;;;;10400232;28;20232;-73
2021/10/06 03:00:39;;;;;;;3.30;0.97;;;15.20;46.40;;;;;;10400629;28;20226;-73
2021/10/06 03:05:43;;;;;;;1.07;0.80;;;15.20;46.50;;;;;;10399270;28;20226;-74
2021/10/06 03:10:47;;;;;;;2.60;0.90;;;15.20;46.70;;;;;;10402768;28;20226;-74
2021/10/06 03:15:50;;;;;;;1.43;1.07;;;15.10;46.70;;;;;;10405352;28;20304;-73
2021/10/06 03:20:54;;;;;;;2.60;0.80;;;15.10;46.70;;;;;;10417605;28;20230;-73
2021/10/06 03:25:58;;;;;;;1.17;0.87;;;15.10;46.70;;;;;;10411160;28;20230;-73
2021/10/06 03:31:01;;;;;;;2.20;0.90;;;15.10;47.00;;;;;;10414098;28;20221;-73
2021/10/06 03:36:05;;;;;;;1.90;0.90;;;15.10;46.80;;;;;;10411593;28;20225;-73
2021/10/06 03:41:10;;;;;;;1.43;1.00;;;15.10;46.70;;;;;;10414984;28;20222;-73
2021/10/06 03:46:13;;;;;;;1.20;0.93;;;15.10;46.80;;;;;;10404330;28;20229;-73
2021/10/06 03:51:16;;;;;;;1.33;0.90;;;15.10;46.80;;;;;;10403205;28;20238;-74
2021/10/06 03:56:21;;;;;;;1.07;0.70;;;15.10;46.60;;;;;;10406021;28;20240;-73
2021/10/06 04:01:24;;;;;;;1.20;0.80;;;15.00;46.70;;;;;;10407767;28;20230;-73
2021/10/06 04:06:27;;;;;;;1.10;0.90;;;15.10;46.80;;;;;;10405977;28;20234;-73
2021/10/06 04:11:32;;;;;;;0.77;0.70;;;15.00;46.70;;;;;;10411501;28;20225;-73
2021/10/06 04:16:35;;;;;;;0.80;0.80;;;15.00;47.00;;;;;;10405915;28;20225;-73
2021/10/06 04:21:38;;;;;;;0.93;0.70;;;14.90;46.70;;;;;;10406204;28;20725;-73
2021/10/06 04:26:43;;;;;;;1.07;0.80;;;14.90;46.90;;;;;;10399584;28;20728;-73
2021/10/06 04:31:46;;;;;;;1.10;1.00;;;14.90;47.10;;;;;;10409789;28;20230;-73
2021/10/06 04:36:49;;;;;;;2.97;0.90;;;14.90;47.10;;;;;;10399263;28;20233;-74
2021/10/06 04:41:54;;;;;;;1.50;0.90;;;14.80;47.20;;;;;;10409676;28;20233;-73
2021/10/06 04:46:57;;;;;;;1.17;0.90;;;14.80;47.30;;;;;;10399824;28;20317;-73
2021/10/06 04:52:00;;;;;;;1.33;0.73;;;14.80;47.30;;;;;;10397876;28;20236;-73
2021/10/06 04:57:05;;;;;;;0.80;0.80;;;14.80;47.30;;;;;;10395345;28;20224;-73
2021/10/06 05:02:08;;;;;;;2.77;0.97;;;14.80;47.30;;;;;;10388627;28;20714;-73
2021/10/06 05:07:11;;;;;;;1.00;0.90;;;14.80;47.30;;;;;;10393639;28;20233;-72
2021/10/06 05:12:16;;;;;;;3.27;0.93;;;14.80;47.40;;;;;;10396697;28;20232;-72
2021/10/06 05:17:19;;;;;;;3.07;1.10;;;14.80;47.50;;;;;;10384624;28;20226;-73
2021/10/06 05:22:22;;;;;;;1.93;1.20;;;14.80;47.20;;;;;;10389680;28;20605;-73
2021/10/06 05:27:27;;;;;;;1.50;1.00;;;14.80;47.20;;;;;;10388039;28;20231;-73
2021/10/06 05:32:31;;;;;;;1.40;0.97;;;14.80;47.10;;;;;;10393699;28;20529;-72
2021/10/06 05:37:34;;;;;;;1.50;0.97;;;14.80;47.20;;;;;;10386860;28;20226;-73
2021/10/06 05:42:39;;;;;;;2.10;1.40;;;14.80;47.20;;;;;;10396511;28;20259;-73
2021/10/06 05:47:42;;;;;;;4.03;2.70;;;14.80;47.30;;;;;;10393508;28;20225;-72
2021/10/06 05:52:45;;;;;;;1.70;1.60;;;14.80;47.30;;;;;;10385600;28;20240;-73
2021/10/06 05:57:50;;;;;;;1.60;1.47;;;14.90;47.30;;;;;;10387677;28;20233;-72
2021/10/06 06:02:53;;;;;;;1.53;1.40;;;14.90;47.00;;;;;;10391594;28;20641;-73
2021/10/06 06:07:57;;;;;;;2.33;1.10;;;14.90;47.00;;;;;;10385208;28;20233;-72
2021/10/06 06:13:02;;;;;;;2.47;1.33;;;14.90;46.90;;;;;;10388250;28;20228;-72
2021/10/06 06:18:05;;;;;;;2.07;1.27;;;14.90;46.90;;;;;;10386752;28;20240;-73
2021/10/06 06:23:08;;;;;;;1.20;1.10;;;14.90;47.10;;;;;;10387139;28;20229;-72
2021/10/06 06:28:16;;;;;;;1.70;1.20;;;14.90;47.10;;;;;;10389191;28;20222;-72
2021/10/06 06:33:19;;;;;;;1.47;1.37;;;14.90;46.80;;;;;;10389161;28;20229;-72
2021/10/06 06:38:22;;;;;;;3.30;1.93;;;14.90;46.90;;;;;;10380987;28;20226;-72
2021/10/06 06:43:27;;;;;;;2.23;1.30;;;14.90;47.00;;;;;;10390938;28;20256;-75
2021/10/06 06:48:30;;;;;;;1.30;1.20;;;14.80;47.10;;;;;;10404908;28;20249;-75
2021/10/06 06:53:33;;;;;;;1.10;1.00;;;14.90;47.00;;;;;;10404038;28;20221;-75
2021/10/06 06:58:37;;;;;;;1.10;1.00;;;14.90;47.20;;;;;;10412191;28;20229;-75
2021/10/06 07:03:41;;;;;;;1.13;1.03;;;14.90;47.80;;;;;;10409443;28;20614;-75
2021/10/06 07:08:47;;;;;;;2.60;1.40;;;14.90;47.10;;;;;;10415491;28;20229;-74
2021/10/06 07:13:52;;;;;;;2.23;1.37;;;15.00;47.00;;;;;;10411511;28;20228;-76
2021/10/06 07:18:55;;;;;;;1.53;1.10;;;15.10;47.00;;;;;;10412506;28;20233;-77
2021/10/06 07:23:58;;;;;;;1.37;0.87;;;15.10;47.00;;;;;;10409026;28;20235;-76
2021/10/06 07:29:03;;;;;;;1.83;1.00;;;15.10;46.90;;;;;;10414327;28;20751;-76
2021/10/06 07:34:07;;;;;;;1.10;1.00;;;15.10;47.50;;;;;;10417133;28;20228;-76
2021/10/06 07:39:11;;;;;;;1.13;0.97;;;15.10;47.00;;;;;;10420057;28;20225;-76
2021/10/06 07:44:16;;;;;;;1.50;1.10;;;15.10;47.00;;;;;;10414438;28;20236;-75
2021/10/06 07:49:19;;;;;;;3.17;0.90;;;15.10;47.00;;;;;;10415019;28;20225;-75
2021/10/06 07:54:22;;;;;;;2.87;1.00;;;15.20;47.20;;;;;;10411719;28;20225;-75
2021/10/06 07:59:27;;;;;;;1.20;1.10;;;15.20;47.20;;;;;;10426759;28;20225;-74
2021/10/06 08:04:30;;;;;;;1.10;1.00;;;15.20;47.20;;;;;;10413054;28;20235;-74
2021/10/06 08:09:33;;;;;;;1.33;0.93;;;15.30;46.90;;;;;;10427835;28;20239;-75
2021/10/06 08:14:38;;;;;;;1.73;1.03;;;15.30;46.90;;;;;;10402878;28;20222;-73
2021/10/06 08:19:41;;;;;;;1.00;0.90;;;15.30;46.90;;;;;;10406849;28;20225;-75
2021/10/06 08:24:45;;;;;;;1.30;1.10;;;15.40;46.90;;;;;;10398693;28;20716;-75
2021/10/06 08:29:50;;;;;;;2.10;1.60;;;15.40;47.20;;;;;;10403205;28;20229;-75
2021/10/06 08:34:54;;;;;;;1.50;1.00;;;15.50;47.40;;;;;;10403054;28;20251;-75
2021/10/06 08:39:57;;;;;;;0.87;0.83;;;15.60;47.60;;;;;;10404672;28;20620;-75
2021/10/06 08:45:05;;;;;;;1.10;1.00;;;15.70;48.00;;;;;;10406396;28;20349;-75
2021/10/06 08:50:11;;;;;;;1.73;1.00;;;16.00;47.80;;;;;;10404954;28;20653;-76
2021/10/06 08:55:15;;;;;;;1.27;1.00;;;16.20;46.40;;;;;;10402901;28;20230;-76
2021/10/06 09:00:19;;;;;;;2.30;0.90;;;16.30;45.90;;;;;;10403343;28;20626;-76
2021/10/06 09:05:25;;;;;;;1.13;1.03;;;16.50;45.60;;;;;;10410856;28;20229;-76
2021/10/06 09:10:30;;;;;;;2.30;1.17;;;16.60;45.70;;;;;;10411173;28;20236;-76
2021/10/06 09:15:44;;;;;;;1.80;1.03;;;16.60;45.10;;;;;;10404895;28;20250;-76
2021/10/06 09:20:48;;;;;;;1.63;1.07;;;16.70;44.50;;;;;;10414956;28;20232;-75
2021/10/06 09:25:53;;;;;;;2.20;1.10;;;16.70;45.10;;;;;;10412048;28;20236;-76
2021/10/06 09:31:01;;;;;;;1.53;1.00;;;16.70;44.60;;;;;;10396827;28;20307;-77
2021/10/06 09:36:09;;;;;;;1.23;1.00;;;16.70;44.40;;;;;;10419228;28;20678;-75
2021/10/06 09:41:36;;;;;;;1.63;0.83;;;16.80;44.00;;;;;;10408842;28;20256;-75
2021/10/06 09:46:49;;;;;;;1.70;0.90;;;16.90;43.80;;;;;;10395506;28;20237;-76
2021/10/06 09:51:54;;;;;;;1.17;1.00;;;17.00;43.10;;;;;;10396944;28;20321;-75
2021/10/06 09:56:58;;;;;;;2.80;1.03;;;17.10;44.10;;;;;;10398683;28;20245;-74
2021/10/06 10:02:04;;;;;;;1.77;0.80;;;17.20;43.80;;;;;;10407533;28;20700;-73
2021/10/06 10:07:07;;;;;;;1.70;0.80;;;17.20;43.70;;;;;;10410539;28;20602;-74
2021/10/06 10:12:11;;;;;;;1.33;0.90;;;17.20;43.30;;;;;;10410032;28;20226;-75
2021/10/06 10:17:16;;;;;;;1.63;0.87;;;17.20;43.10;;;;;;10397500;28;20257;-75
2021/10/06 10:22:21;;;;;;;1.93;0.70;;;17.20;42.50;;;;;;10404340;28;20232;-74
2021/10/06 10:27:25;;;;;;;1.27;0.80;;;17.20;42.20;;;;;;10400654;28;20634;-74
2021/10/06 10:32:43;;;;;;;1.57;0.70;;;17.20;41.90;;;;;;10400742;28;20226;-74
2021/10/06 10:38:15;;;;;;;1.37;0.80;;;17.30;40.70;;;;;;10397548;28;20921;-75
2021/10/06 10:43:20;;;;;;;1.50;0.87;;;17.40;41.70;;;;;;10407914;28;20226;-74
2021/10/06 10:48:29;;;;;;;2.07;0.90;;;17.40;41.10;;;;;;10406099;28;20244;-74
2021/10/06 10:54:00;;;;;;;1.13;0.80;;;17.40;41.00;;;;;;10399377;28;20248;-74
2021/10/06 10:59:08;;;;;;;1.57;0.80;;;17.30;40.60;;;;;;10408566;28;20218;-75
2021/10/06 11:04:15;;;;;;;1.17;0.97;;;17.30;40.80;;;;;;10400262;28;20229;-74
2021/10/06 11:09:38;;;;;;;0.97;0.80;;;17.30;40.80;;;;;;10400557;28;20240;-75
2021/10/06 11:14:43;;;;;;;0.70;0.67;;;17.40;41.00;;;;;;10405523;28;20226;-75
2021/10/06 11:19:50;;;;;;;2.10;1.40;;;17.40;40.90;;;;;;10400654;28;20731;-75
2021/10/06 11:24:55;;;;;;;2.23;1.00;;;17.50;40.50;;;;;;10398505;28;20346;-74
2021/10/06 11:29:59;;;;;;;1.60;0.87;;;17.60;40.90;;;;;;10396460;28;20226;-76
2021/10/06 11:35:04;;;;;;;1.87;0.90;;;17.70;40.30;;;;;;10397745;28;20710;-75
2021/10/06 11:40:10;;;;;;;2.30;0.93;;;17.70;39.80;;;;;;10395676;28;20217;-76
2021/10/06 11:45:18;;;;;;;1.67;1.00;;;17.80;39.30;;;;;;10401773;28;20232;-75
2021/10/06 11:50:22;;;;;;;0.97;0.70;;;17.80;38.80;;;;;;10400200;28;20328;-76
2021/10/06 11:55:26;;;;;;;2.27;1.00;;;17.90;39.60;;;;;;10394362;28;20233;-75
2021/10/06 12:00:29;;;;;;;1.73;0.90;;;18.00;39.80;;;;;;10384932;28;20257;-76
2021/10/06 12:05:34;;;;;;;1.63;0.90;;;18.00;39.60;;;;;;10387284;28;20230;-75
2021/10/06 12:10:38;;;;;;;0.90;0.80;;;18.00;39.10;;;;;;10385267;28;20233;-76
2021/10/06 12:15:42;;;;;;;1.20;0.70;;;18.00;39.30;;;;;;10401727;28;20237;-78
2021/10/06 12:20:47;;;;;;;2.77;0.90;;;18.00;40.40;;;;;;10394124;28;20309;-77
2021/10/06 12:25:55;;;;;;;1.83;0.80;;;18.10;38.60;;;;;;10397085;28;20225;-79
2021/10/06 12:30:58;;;;;;;2.27;0.93;;;18.10;37.60;;;;;;10396244;28;20218;-80
2021/10/06 12:36:05;;;;;;;1.33;0.60;;;18.10;38.90;;;;;;10399503;28;20237;-77
2021/10/06 12:41:15;;;;;;;0.63;0.63;;;18.00;36.00;;;;;;10401556;28;20671;-77
2021/10/06 12:46:24;;;;;;;1.17;0.80;;;17.90;36.00;;;;;;10409759;28;20726;-75
2021/10/06 12:51:30;;;;;;;3.40;0.80;;;17.80;36.20;;;;;;10405425;28;20697;-75
2021/10/06 12:56:35;;;;;;;1.97;0.70;;;17.60;36.40;;;;;;10400408;28;20717;-77
2021/10/06 13:01:40;;;;;;;2.17;0.80;;;17.40;36.90;;;;;;10403796;28;20229;-77
2021/10/06 13:06:47;;;;;;;0.60;0.60;;;17.40;37.40;;;;;;10400329;28;20225;-77
2021/10/06 13:11:52;;;;;;;1.17;0.70;;;17.30;36.50;;;;;;10412786;28;20228;-76
2021/10/06 13:16:56;;;;;;;2.93;0.70;;;17.40;37.60;;;;;;10396735;28;20228;-77
2021/10/06 13:22:01;;;;;;;1.50;0.70;;;17.50;37.90;;;;;;10396718;28;20288;-76
2021/10/06 13:27:04;;;;;;;1.53;0.80;;;17.60;37.10;;;;;;10396543;28;20229;-76
2021/10/06 13:32:08;;;;;;;1.03;0.77;;;17.80;37.90;;;;;;10404949;28;20225;-75
2021/10/06 13:37:13;;;;;;;1.40;0.87;;;17.90;37.50;;;;;;10402120;28;21090;-75
2021/10/06 13:42:16;;;;;;;0.80;0.60;;;18.00;36.80;;;;;;10397941;28;20862;-75
2021/10/06 13:47:20;;;;;;;2.83;0.77;;;18.10;37.40;;;;;;10401968;28;20221;-75
2021/10/06 13:52:24;;;;;;;1.53;0.93;;;18.10;37.40;;;;;;10408236;28;20225;-75
2021/10/06 13:57:28;;;;;;;3.50;1.10;;;18.20;37.00;;;;;;10404983;28;20230;-75
2021/10/06 14:02:31;;;;;;;1.00;0.80;;;18.20;37.60;;;;;;10401579;28;20225;-74
2021/10/06 14:07:36;;;;;;;2.17;0.93;;;18.30;37.50;;;;;;10396484;28;20246;-74
2021/10/06 14:12:40;;;;;;;1.20;0.80;;;18.40;36.00;;;;;;10397817;28;20244;-76
2021/10/06 14:17:44;;;;;;;1.40;0.80;;;18.40;36.90;;;;;;10388297;28;20225;-77
2021/10/06 14:22:48;;;;;;;1.17;0.87;;;18.40;36.00;;;;;;10393312;28;20231;-76
2021/10/06 14:27:52;;;;;;;1.00;0.70;;;18.40;35.10;;;;;;10360923;28;1304368;-76
2021/10/06 14:32:55;;;;;;;2.43;0.90;;;18.40;35.40;;;;;;10405583;28;20225;-75
2021/10/06 14:38:00;;;;;;;1.00;0.70;;;18.20;35.40;;;;;;10403262;28;20247;-75
2021/10/06 14:43:05;;;;;;;1.10;0.90;;;18.10;35.10;;;;;;10405886;28;20221;-75
2021/10/06 14:48:08;;;;;;;1.93;0.87;;;18.10;36.00;;;;;;10415226;28;20236;-76
2021/10/06 14:53:13;;;;;;;2.23;0.93;;;18.00;35.70;;;;;;10413747;28;20777;-75
2021/10/06 14:58:16;;;;;;;1.40;0.77;;;18.00;35.20;;;;;;10414198;28;20233;-75
2021/10/06 15:03:20;;;;;;;1.80;0.80;;;17.90;36.10;;;;;;10415749;28;20232;-75
2021/10/06 15:08:24;;;;;;;1.30;0.73;;;17.90;36.30;;;;;;10429201;28;20235;-75
2021/10/06 15:13:28;;;;;;;1.30;0.80;;;17.90;35.60;;;;;;10415043;28;20247;-75
2021/10/06 15:18:31;;;;;;;2.20;0.80;;;18.00;36.10;;;;;;10418065;28;20225;-76
2021/10/06 15:23:36;;;;;;;1.80;0.90;;;18.00;35.70;;;;;;10411234;28;20232;-74
2021/10/06 15:28:39;;;;;;;2.03;0.73;;;18.00;35.60;;;;;;10415574;28;20225;-74
2021/10/06 15:33:42;;;;;;;1.13;0.77;;;17.90;35.70;;;;;;10405456;28;20230;-75
2021/10/06 15:38:47;;;;;;;0.90;0.70;;;17.90;35.80;;;;;;10409870;28;20224;-74
2021/10/06 15:43:51;;;;;;;1.00;0.70;;;17.90;35.60;;;;;;10404809;28;20233;-74
2021/10/06 15:48:54;;;;;;;0.70;0.70;;;17.90;36.30;;;;;;10409534;28;20236;-75
2021/10/06 15:53:59;;;;;;;1.83;0.80;;;18.00;36.40;;;;;;10405801;28;20236;-75
2021/10/06 15:59:02;;;;;;;2.60;0.80;;;18.00;35.90;;;;;;10403470;28;20222;-75
2021/10/06 16:04:07;;;;;;;1.47;0.80;;;18.00;36.30;;;;;;10405004;28;20594;-75
2021/10/06 16:09:11;;;;;;;2.07;0.90;;;18.00;35.90;;;;;;10410441;28;20239;-75
2021/10/06 16:14:15;;;;;;;1.27;0.67;;;18.00;36.10;;;;;;10398447;28;20925;-76
2021/10/06 16:19:19;;;;;;;1.43;0.83;;;18.00;36.40;;;;;;10405868;28;20225;-76
2021/10/06 16:24:23;;;;;;;1.87;1.27;;;17.90;36.40;;;;;;10407563;28;20234;-76
2021/10/06 16:29:27;;;;;;;2.80;1.50;;;17.90;36.30;;;;;;10413375;28;20225;-76
2021/10/06 16:34:30;;;;;;;2.33;1.60;;;17.80;36.60;;;;;;10404651;28;20225;-76
2021/10/06 16:39:38;;;;;;;3.17;1.43;;;17.80;36.60;;;;;;10400922;28;20229;-75
2021/10/06 16:44:42;;;;;;;1.40;1.27;;;17.70;36.30;;;;;;10419194;28;20244;-75
2021/10/06 16:49:46;;;;;;;1.93;1.13;;;17.60;36.20;;;;;;10393375;28;20251;-75
2021/10/06 16:55:10;;;;;;;2.17;1.20;;;17.50;36.20;;;;;;10400403;28;20233;-75
2021/10/06 17:00:16;;;;;;;2.67;2.10;;;17.30;35.60;;;;;;10405971;28;20237;-75
2021/10/06 17:05:20;;;;;;;1.80;1.70;;;17.10;36.00;;;;;;10418716;28;20253;-76
2021/10/06 17:10:25;;;;;;;1.77;1.67;;;16.90;36.20;;;;;;10400948;28;20316;-75
2021/10/06 17:15:28;;;;;;;1.80;1.70;;;16.70;36.20;;;;;;10406460;28;20239;-76
2021/10/06 17:20:32;;;;;;;1.80;1.60;;;16.60;36.30;;;;;;10399097;28;20321;-76
2021/10/06 17:25:38;;;;;;;1.83;1.50;;;16.40;36.60;;;;;;10394560;28;20230;-76
2021/10/06 17:30:44;;;;;;;2.07;1.63;;;16.40;36.70;;;;;;10397522;28;20233;-76
2021/10/06 17:35:47;;;;;;;1.60;1.50;;;16.30;36.80;;;;;;10401346;28;20229;-76
2021/10/06 17:40:52;;;;;;;2.00;1.90;;;16.20;37.10;;;;;;10397247;28;20257;-76
2021/10/06 17:45:56;;;;;;;6.03;3.37;;;16.20;37.30;;;;;;10400647;28;20228;-76
2021/10/06 17:51:01;;;;;;;7.83;4.50;;;16.10;37.40;;;;;;10402426;28;20227;-76
2021/10/06 17:56:06;;;;;;;6.20;5.07;;;16.10;37.50;;;;;;10405970;28;20256;-76
2021/10/06 18:01:09;;;;;;;6.27;5.20;;;16.20;37.60;;;;;;10411496;28;20237;-76
2021/10/06 18:06:13;;;;;;;4.77;4.33;;;16.20;37.60;;;;;;10403284;28;20283;-76
2021/10/06 18:11:18;;;;;;;3.70;3.40;;;16.20;37.50;;;;;;10402947;28;20236;-76
2021/10/06 18:16:24;;;;;;;3.80;3.40;;;16.10;37.30;;;;;;10404950;28;20303;-76
2021/10/06 18:21:27;;;;;;;3.23;2.93;;;16.10;37.30;;;;;;10404121;28;20317;-76
2021/10/06 18:26:32;;;;;;;4.53;3.23;;;16.00;37.20;;;;;;10408064;28;20222;-76
2021/10/06 18:31:35;;;;;;;3.67;2.90;;;15.90;37.30;;;;;;10398445;28;20344;-76
2021/10/06 18:36:57;;;;;;;3.70;3.10;;;15.70;37.50;;;;;;10389283;28;20228;-76
2021/10/06 18:42:02;;;;;;;3.50;3.20;;;15.60;37.60;;;;;;10395967;28;20233;-76
2021/10/06 18:47:07;;;;;;;4.63;3.10;;;15.60;37.80;;;;;;10399631;28;20218;-76
2021/10/06 18:52:10;;;;;;;6.87;3.10;;;15.60;37.90;;;;;;10401565;28;20236;-76
2021/10/06 18:57:16;;;;;;;3.93;3.53;;;15.60;37.80;;;;;;10405518;28;20237;-76
2021/10/06 19:02:20;;;;;;;5.37;3.67;;;15.60;37.40;;;;;;10403260;28;20272;-75
2021/10/06 19:07:23;;;;;;;4.27;3.60;;;15.50;37.40;;;;;;10415971;28;20239;-76
2021/10/06 19:12:28;;;;;;;3.70;3.40;;;15.40;37.60;;;;;;10387307;28;20311;-77
2021/10/06 19:17:31;;;;;;;2.80;2.60;;;15.30;37.80;;;;;;10395595;28;20244;-76
2021/10/06 19:22:35;;;;;;;3.07;2.60;;;15.20;37.90;;;;;;10388656;28;20225;-77
2021/10/06 19:27:41;;;;;;;3.30;3.00;;;15.10;38.00;;;;;;10391395;28;20371;-77
2021/10/06 19:32:44;;;;;;;3.30;2.90;;;15.10;38.20;;;;;;10386652;28;20226;-77
2021/10/06 19:37:48;;;;;;;3.53;3.00;;;15.00;38.00;;;;;;10387503;28;20229;-77
2021/10/06 19:42:55;;;;;;;4.77;3.77;;;14.90;38.20;;;;;;10397261;28;20222;-76
2021/10/06 19:47:59;;;;;;;2.50;2.30;;;14.80;38.50;;;;;;10388487;28;20279;-75
2021/10/06 19:53:03;;;;;;;2.70;1.67;;;14.70;38.20;;;;;;10389208;28;20615;-76
2021/10/06 19:58:07;;;;;;;1.90;1.30;;;14.60;38.20;;;;;;10396780;28;20272;-76
2021/10/06 20:03:11;;;;;;;1.97;1.30;;;14.50;38.30;;;;;;10388474;28;20709;-76
2021/10/06 20:08:15;;;;;;;1.30;1.20;;;14.50;38.40;;;;;;10389269;28;20245;-78
2021/10/06 20:13:19;;;;;;;1.50;1.40;;;14.50;38.40;;;;;;10388057;28;20221;-76
2021/10/06 20:18:23;;;;;;;1.40;1.30;;;14.50;38.70;;;;;;10380606;28;20234;-78
2021/10/06 20:23:26;;;;;;;2.63;1.60;;;14.50;38.60;;;;;;10394965;28;21054;-76
2021/10/06 20:28:31;;;;;;;2.33;1.57;;;14.50;38.80;;;;;;10394168;28;20234;-76
2021/10/06 20:33:43;;;;;;;2.47;2.20;;;14.50;38.80;;;;;;10393404;28;20239;-77
2021/10/06 20:38:46;;;;;;;1.87;1.63;;;14.50;38.90;;;;;;10391247;28;20233;-75
2021/10/06 20:43:51;;;;;;;2.13;1.90;;;14.50;39.00;;;;;;10380672;28;20228;-75
2021/10/06 20:48:54;;;;;;;2.53;1.77;;;14.50;39.10;;;;;;10380017;28;20985;-75
2021/10/06 20:53:58;;;;;;;3.30;3.00;;;14.50;39.00;;;;;;10413004;28;20247;-75
2021/10/06 20:59:02;;;;;;;2.60;2.40;;;14.40;39.10;;;;;;10399527;28;20229;-75
2021/10/06 21:04:06;;;;;;;2.87;2.30;;;14.40;39.50;;;;;;10394681;28;20226;-76
2021/10/06 21:09:10;;;;;;;2.20;2.00;;;14.40;39.60;;;;;;10402886;28;20229;-75
2021/10/06 21:14:14;;;;;;;1.80;1.70;;;14.40;39.60;;;;;;10403090;28;20646;-75
2021/10/06 21:19:18;;;;;;;3.80;2.53;;;14.40;39.80;;;;;;10404493;28;20276;-75
2021/10/06 21:24:21;;;;;;;3.90;2.57;;;14.50;39.60;;;;;;10398234;28;20226;-75
2021/10/06 21:29:26;;;;;;;2.73;1.80;;;14.50;39.30;;;;;;10404383;28;20234;-75
2021/10/06 21:34:29;;;;;;;2.10;1.70;;;14.40;39.20;;;;;;10412666;28;20251;-75
2021/10/06 21:39:33;;;;;;;1.47;1.30;;;14.40;39.10;;;;;;10407785;28;20229;-75
2021/10/06 21:44:37;;;;;;;2.27;1.83;;;14.30;39.10;;;;;;10403556;28;20602;-75
2021/10/06 21:49:41;;;;;;;2.93;1.50;;;14.20;39.30;;;;;;10412384;28;20724;-75
2021/10/06 21:54:44;;;;;;;2.10;1.60;;;14.20;39.30;;;;;;10410369;28;20226;-75
2021/10/06 21:59:50;;;;;;;1.63;1.53;;;14.20;39.40;;;;;;10418182;28;20554;-75
2021/10/06 22:04:53;;;;;;;1.63;1.53;;;14.20;39.40;;;;;;10410193;28;20226;-75
2021/10/06 22:09:57;;;;;;;1.40;1.30;;;14.20;39.30;;;;;;10409642;28;20655;-75
2021/10/06 22:15:01;;;;;;;1.80;1.40;;;14.20;39.30;;;;;;10412144;28;20313;-75
2021/10/06 22:20:06;;;;;;;1.57;1.40;;;14.20;39.50;;;;;;10426973;28;20239;-75
2021/10/06 22:25:10;;;;;;;2.03;1.20;;;14.10;39.40;;;;;;10424054;28;20240;-75
2021/10/06 22:30:16;;;;;;;2.43;1.40;;;14.10;39.40;;;;;;10406884;28;20252;-75
2021/10/06 22:35:19;;;;;;;1.60;1.13;;;14.00;39.60;;;;;;10413432;28;20232;-75
2021/10/06 22:40:23;;;;;;;2.47;1.33;;;14.10;39.60;;;;;;10408985;28;20753;-75
2021/10/06 22:45:28;;;;;;;1.50;1.40;;;14.10;39.60;;;;;;10421356;28;20750;-75
2021/10/06 22:50:31;;;;;;;1.63;1.30;;;14.00;39.60;;;;;;10406842;28;20232;-75
2021/10/06 22:55:35;;;;;;;2.73;1.47;;;14.00;39.50;;;;;;10414820;28;20534;-75
2021/10/06 23:00:40;;;;;;;1.73;1.60;;;13.90;39.50;;;;;;10411670;28;20232;-75
2021/10/06 23:05:44;;;;;;;1.50;1.40;;;13.90;39.80;;;;;;10414769;28;20249;-75
2021/10/06 23:10:47;;;;;;;1.93;1.50;;;13.80;39.80;;;;;;10406999;28;20229;-75
2021/10/06 23:15:52;;;;;;;2.37;1.30;;;13.70;39.90;;;;;;10411385;28;20236;-74
2021/10/06 23:20:55;;;;;;;2.00;1.33;;;13.70;39.90;;;;;;10416197;28;20260;-75
2021/10/06 23:25:59;;;;;;;1.33;1.23;;;13.60;39.80;;;;;;10414831;28;20816;-74
2021/10/06 23:31:04;;;;;;;1.37;1.27;;;13.60;40.00;;;;;;10418805;28;20252;-75
2021/10/06 23:36:08;;;;;;;1.87;1.57;;;13.50;40.10;;;;;;10421972;28;20287;-75
2021/10/06 23:41:11;;;;;;;1.60;1.50;;;13.50;40.10;;;;;;10423214;28;20695;-75
2021/10/06 23:46:16;;;;;;;1.50;1.40;;;13.50;40.10;;;;;;10426515;28;20308;-75
2021/10/06 23:51:19;;;;;;;2.03;1.37;;;13.50;40.40;;;;;;10416797;28;20237;-75
2021/10/06 23:56:22;;;;;;;2.00;1.50;;;13.40;40.20;;;;;;10422609;28;20229;-75
